createdAt,value
2022-09-02T00:00:21.006Z,16.28
2022-09-02T00:05:52.211Z,16.25
2022-09-02T00:11:27.596Z,16.23
2022-09-02T00:17:01.127Z,16.22
2022-09-02T00:22:32.446Z,16.19
2022-09-02T00:28:04.399Z,16.17
2022-09-02T00:33:37.476Z,16.15
2022-09-02T00:39:09.017Z,16.13
2022-09-02T00:44:39.840Z,16.10
2022-09-02T00:50:13.820Z,16.06
2022-09-02T00:55:48.148Z,16.05
2022-09-02T01:01:20.954Z,16.01
2022-09-02T01:06:52.419Z,16.00
2022-09-02T01:12:24.514Z,15.98
2022-09-02T01:17:55.584Z,15.96
2022-09-02T01:23:29.357Z,15.94
2022-09-02T01:29:04.318Z,15.92
2022-09-02T01:34:35.603Z,15.90
2022-09-02T01:40:09.899Z,15.87
2022-09-02T01:45:43.115Z,15.84
2022-09-02T01:51:20.511Z,15.82
2022-09-02T01:56:52.490Z,15.80
2022-09-02T02:02:23.850Z,15.75
2022-09-02T02:07:57.648Z,15.73
2022-09-02T02:13:28.867Z,15.69
2022-09-02T02:18:59.990Z,15.67
2022-09-02T02:24:31.143Z,15.66
2022-09-02T02:30:02.259Z,15.61
2022-09-02T02:35:35.743Z,15.58
2022-09-02T02:41:07.946Z,15.52
2022-09-02T02:46:39.232Z,15.49
2022-09-02T02:52:12.787Z,15.41
2022-09-02T02:57:44.906Z,15.40
2022-09-02T03:03:19.901Z,15.38
2022-09-02T03:08:54.487Z,15.36
2022-09-02T03:14:26.396Z,15.27
2022-09-02T03:19:59.590Z,15.20
2022-09-02T03:25:36.109Z,15.16
2022-09-02T03:31:20.182Z,15.13
2022-09-02T03:36:51.545Z,15.07
2022-09-02T03:42:23.671Z,15.04
2022-09-02T03:47:56.411Z,15.01
2022-09-02T03:53:32.074Z,14.96
2022-09-02T03:59:04.567Z,14.92
2022-09-02T04:04:36.703Z,14.87
2022-09-02T04:10:10.004Z,14.87
2022-09-02T04:15:45.106Z,14.82
2022-09-02T04:21:16.958Z,14.80
2022-09-02T04:26:48.119Z,14.75
2022-09-02T04:32:22.005Z,14.71
2022-09-02T04:37:54.918Z,14.66
2022-09-02T04:43:26.473Z,14.62
2022-09-02T04:48:58.078Z,14.59
2022-09-02T04:54:29.571Z,14.57
2022-09-02T05:00:08.822Z,14.55
2022-09-02T05:05:40.598Z,14.54
2022-09-02T05:11:18.658Z,14.53
2022-09-02T05:16:54.713Z,14.51
2022-09-02T05:22:29.765Z,14.51
2022-09-02T05:28:04.443Z,14.51
2022-09-02T05:33:41.213Z,14.49
2022-09-02T05:39:14.345Z,14.48
2022-09-02T05:44:47.381Z,14.47
2022-09-02T05:50:23.134Z,14.46
2022-09-02T05:55:55.794Z,14.46
2022-09-02T06:01:29.726Z,14.43
2022-09-02T06:07:01.257Z,14.44
2022-09-02T06:12:33.388Z,14.44
2022-09-02T06:18:04.655Z,14.47
2022-09-02T06:23:39.276Z,14.52
2022-09-02T06:29:13.836Z,14.59
2022-09-02T06:34:44.976Z,14.67
2022-09-02T06:40:18.964Z,14.76
2022-09-02T06:45:52.292Z,14.85
2022-09-02T06:51:36.405Z,14.96
2022-09-02T06:57:08.316Z,15.05
2022-09-02T07:02:41.152Z,15.16
2022-09-02T07:08:13.782Z,15.28
2022-09-02T07:13:46.484Z,15.40
2022-09-02T07:19:21.028Z,15.52
2022-09-02T07:24:53.045Z,15.64
2022-09-02T07:30:24.846Z,15.75
2022-09-02T07:36:12.205Z,15.85
2022-09-02T07:41:49.297Z,15.96
2022-09-02T07:47:22.528Z,16.08
2022-09-02T07:52:58.379Z,16.20
2022-09-02T07:58:32.540Z,16.32
2022-09-02T08:04:06.499Z,16.41
2022-09-02T08:09:40.189Z,16.52
2022-09-02T08:15:12.583Z,16.63
2022-09-02T08:20:43.537Z,16.74
2022-09-02T08:26:14.747Z,16.88
2022-09-02T08:31:46.959Z,17.00
2022-09-02T08:37:19.937Z,17.13
2022-09-02T08:42:52.139Z,17.23
2022-09-02T08:48:32.609Z,17.38
2022-09-02T08:54:14.634Z,17.51
2022-09-02T08:59:46.239Z,17.60
2022-09-02T09:05:44.372Z,17.67
2022-09-02T09:11:21.503Z,17.77
2022-09-02T09:16:59.341Z,17.84
2022-09-02T09:22:37.611Z,17.90
2022-09-02T09:28:08.933Z,17.97
2022-09-02T09:33:41.891Z,18.05
2022-09-02T09:39:25.443Z,18.15
2022-09-02T09:44:56.443Z,18.19
2022-09-02T09:50:28.283Z,18.26
2022-09-02T09:56:08.127Z,18.33
2022-09-02T10:01:39.389Z,18.40
2022-09-02T10:07:13.681Z,18.48
2022-09-02T10:12:46.626Z,18.56
2022-09-02T10:18:28.865Z,18.65
2022-09-02T10:24:28.083Z,18.74
2022-09-02T10:30:18.949Z,18.82
2022-09-02T10:36:00.184Z,18.90
2022-09-02T10:47:36.531Z,19.01
2022-09-02T10:53:13.823Z,19.05
2022-09-02T10:59:06.347Z,19.05
2022-09-02T11:04:42.393Z,19.09
2022-09-02T11:10:27.760Z,19.10
2022-09-02T11:16:13.349Z,19.15
2022-09-02T11:21:56.791Z,19.17
2022-09-02T11:27:53.279Z,19.19
2022-09-02T11:33:33.446Z,19.21
2022-09-02T11:39:25.841Z,19.27
2022-09-02T11:45:28.243Z,19.29
2022-09-02T11:57:02.073Z,19.32
2022-09-02T12:03:28.527Z,19.38
2022-09-02T12:09:03.847Z,19.45
2022-09-02T12:14:34.721Z,19.51
2022-09-02T12:20:08.784Z,19.57
2022-09-02T12:25:49.841Z,19.60
2022-09-02T12:31:43.544Z,19.59
2022-09-02T12:37:54.254Z,19.60
2022-09-02T12:43:31.324Z,19.63
2022-09-02T12:49:14.659Z,19.69
2022-09-02T12:54:49.350Z,19.75
2022-09-02T13:00:34.349Z,19.77
2022-09-02T13:06:24.068Z,19.77
2022-09-02T13:12:24.230Z,19.74
2022-09-02T13:18:26.430Z,19.73
2022-09-02T13:24:03.721Z,19.75
2022-09-02T13:29:50.330Z,19.77
2022-09-02T13:35:25.288Z,19.77
2022-09-02T13:40:57.356Z,19.74
2022-09-02T13:46:28.535Z,19.71
2022-09-02T13:51:59.784Z,19.64
2022-09-02T13:57:32.460Z,19.61
2022-09-02T14:03:12.667Z,19.63
2022-09-02T14:08:44.461Z,19.65
2022-09-02T14:14:17.905Z,19.67
2022-09-02T14:19:49.258Z,19.64
2022-09-02T14:25:32.351Z,19.59
2022-09-02T14:31:08.511Z,19.57
2022-09-02T14:36:40.487Z,19.55
2022-09-02T14:42:11.956Z,19.52
2022-09-02T14:47:43.152Z,19.49
2022-09-02T14:53:21.172Z,19.49
2022-09-02T14:58:52.626Z,19.48
2022-09-02T15:04:23.679Z,19.49
2022-09-02T15:09:54.938Z,19.49
2022-09-02T15:15:27.334Z,19.45
2022-09-02T15:20:58.729Z,19.47
2022-09-02T15:26:30.423Z,19.46
2022-09-02T15:32:03.226Z,19.46
2022-09-02T15:37:37.891Z,19.45
2022-09-02T15:43:09.017Z,19.43
2022-09-02T15:48:41.022Z,19.40
2022-09-02T15:54:16.429Z,19.38
2022-09-02T15:59:48.677Z,19.33
2022-09-02T16:05:21.705Z,19.32
2022-09-02T16:10:53.319Z,19.29
2022-09-02T16:16:24.462Z,19.23
2022-09-02T16:21:55.768Z,19.19
2022-09-02T16:27:45.434Z,19.15
2022-09-02T16:33:16.509Z,19.11
2022-09-02T16:38:47.935Z,19.09
2022-09-02T16:44:21.970Z,19.05
2022-09-02T16:49:53.435Z,19.02
2022-09-02T16:55:25.087Z,19.00
2022-09-02T17:00:57.366Z,18.98
2022-09-02T17:06:29.557Z,18.93
2022-09-02T17:12:00.698Z,18.90
2022-09-02T17:17:31.890Z,18.87
2022-09-02T17:23:04.737Z,18.83
2022-09-02T17:28:35.875Z,18.80
2022-09-02T17:34:07.991Z,18.76
2022-09-02T17:39:38.954Z,18.73
2022-09-02T17:45:10.770Z,18.68
2022-09-02T17:50:42.101Z,18.63
2022-09-02T17:56:35.924Z,18.61
2022-09-02T18:02:10.027Z,18.58
2022-09-02T18:07:51.081Z,18.53
2022-09-02T18:13:36.421Z,18.50
2022-09-02T18:19:13.869Z,18.46
2022-09-02T18:25:08.614Z,18.41
2022-09-02T18:30:46.519Z,18.37
2022-09-02T18:36:34.396Z,18.34
2022-09-02T18:42:26.837Z,18.29
2022-09-02T18:48:14.400Z,18.25
2022-09-02T18:53:49.733Z,18.20
2022-09-02T18:59:35.576Z,18.16
2022-09-02T19:05:10.006Z,18.13
2022-09-02T19:10:41.826Z,18.09
2022-09-02T19:16:16.398Z,18.05
2022-09-02T19:21:56.361Z,17.99
2022-09-02T19:27:38.268Z,17.94
2022-09-02T19:33:13.861Z,17.90
2022-09-02T19:38:45.824Z,17.87
2022-09-02T19:44:18.555Z,17.84
2022-09-02T19:49:49.658Z,17.78
2022-09-02T19:55:21.517Z,17.75
2022-09-02T20:00:54.539Z,17.72
2022-09-02T20:06:26.196Z,17.67
2022-09-02T20:11:57.235Z,17.62
2022-09-02T20:17:31.450Z,17.54
2022-09-02T20:23:03.037Z,17.48
2022-09-02T20:28:45.645Z,17.42
2022-09-02T20:34:21.978Z,17.37
2022-09-02T20:40:03.745Z,17.31
2022-09-02T20:45:45.148Z,17.26
2022-09-02T20:51:54.687Z,17.15
2022-09-02T20:57:30.113Z,17.05
2022-09-02T21:03:11.507Z,16.99
2022-09-02T21:09:05.348Z,16.95
2022-09-02T21:14:45.267Z,16.89
2022-09-02T21:20:38.663Z,16.82
2022-09-02T21:26:31.396Z,16.77
2022-09-02T21:32:29.811Z,16.71
2022-09-02T21:38:24.669Z,16.65
2022-09-02T21:44:34.436Z,16.58
2022-09-02T21:50:21.911Z,16.52
2022-09-02T21:56:21.550Z,16.45
2022-09-02T22:02:01.860Z,16.39
2022-09-02T22:07:55.835Z,16.34
2022-09-02T22:13:30.423Z,16.28
2022-09-02T22:19:03.822Z,16.22
2022-09-02T22:24:37.496Z,16.19
2022-09-02T22:30:14.641Z,16.15
2022-09-02T22:35:54.768Z,16.11
2022-09-02T22:41:29.518Z,16.08
2022-09-02T22:47:24.794Z,16.06
2022-09-02T22:52:55.959Z,15.98
2022-09-02T22:58:47.784Z,15.93
2022-09-02T23:04:43.668Z,15.88
2022-09-02T23:10:20.275Z,15.85
2022-09-02T23:16:14.506Z,15.82
2022-09-02T23:22:07.700Z,15.80
2022-09-02T23:27:48.016Z,15.74
2022-09-02T23:33:49.679Z,15.70
2022-09-02T23:39:25.287Z,15.68
2022-09-02T23:45:02.026Z,15.61
2022-09-02T23:50:49.347Z,15.57
2022-09-02T23:56:33.798Z,15.48
